sensor_id;sensor_type;location;lat;lon;timestamp;temperature;humidity
66271;DHT22;53063;39.614;8.814;2023-02-28T00:00:51;7.90;99.90
66271;DHT22;53063;39.614;8.814;2023-02-28T00:03:16;7.90;99.90
66271;DHT22;53063;39.614;8.814;2023-02-28T00:05:43;7.80;99.90
66271;DHT22;53063;39.614;8.814;2023-02-28T00:08:09;7.70;99.90
66271;DHT22;53063;39.614;8.814;2023-02-28T00:10:35;7.60;99.90
66271;DHT22;53063;39.614;8.814;2023-02-28T00:13:04;7.70;99.90
66271;DHT22;53063;39.614;8.814;2023-02-28T00:15:31;7.70;99.90
66271;DHT22;53063;39.614;8.814;2023-02-28T00:17:57;7.70;99.90
66271;DHT22;53063;39.614;8.814;2023-02-28T00:20:24;7.70;99.90
66271;DHT22;53063;39.614;8.814;2023-02-28T00:22:52;7.70;99.90
66271;DHT22;53063;39.614;8.814;2023-02-28T00:25:20;7.80;99.90
66271;DHT22;53063;39.614;8.814;2023-02-28T00:27:47;8.00;99.90
66271;DHT22;53063;39.614;8.814;2023-02-28T00:30:20;8.00;99.90
66271;DHT22;53063;39.614;8.814;2023-02-28T00:32:47;7.90;99.90
66271;DHT22;53063;39.614;8.814;2023-02-28T00:35:13;7.90;99.90
66271;DHT22;53063;39.614;8.814;2023-02-28T00:37:41;7.80;99.90
66271;DHT22;53063;39.614;8.814;2023-02-28T00:40:07;7.70;99.90
66271;DHT22;53063;39.614;8.814;2023-02-28T00:42:35;7.60;99.90
66271;DHT22;53063;39.614;8.814;2023-02-28T00:45:01;7.70;99.90
66271;DHT22;53063;39.614;8.814;2023-02-28T00:47:29;7.70;99.90
66271;DHT22;53063;39.614;8.814;2023-02-28T00:49:55;7.70;99.90
66271;DHT22;53063;39.614;8.814;2023-02-28T00:52:21;7.80;99.90
66271;DHT22;53063;39.614;8.814;2023-02-28T00:54:47;7.80;99.90
66271;DHT22;53063;39.614;8.814;2023-02-28T00:57:14;7.80;99.90
66271;DHT22;53063;39.614;8.814;2023-02-28T00:59:40;7.80;99.90
66271;DHT22;53063;39.614;8.814;2023-02-28T01:02:06;7.80;99.90
66271;DHT22;53063;39.614;8.814;2023-02-28T01:04:32;7.90;99.90
66271;DHT22;53063;39.614;8.814;2023-02-28T01:07:00;7.80;99.90
66271;DHT22;53063;39.614;8.814;2023-02-28T01:09:28;7.80;99.90
66271;DHT22;53063;39.614;8.814;2023-02-28T01:11:54;7.80;99.90
66271;DHT22;53063;39.614;8.814;2023-02-28T01:14:20;7.80;99.90
66271;DHT22;53063;39.614;8.814;2023-02-28T01:16:46;7.80;99.90
66271;DHT22;53063;39.614;8.814;2023-02-28T01:19:12;7.70;99.90
66271;DHT22;53063;39.614;8.814;2023-02-28T01:21:38;7.60;99.90
66271;DHT22;53063;39.614;8.814;2023-02-28T01:24:05;7.60;99.90
66271;DHT22;53063;39.614;8.814;2023-02-28T01:26:31;7.60;99.90
66271;DHT22;53063;39.614;8.814;2023-02-28T01:28:58;7.60;99.90
66271;DHT22;53063;39.614;8.814;2023-02-28T01:31:25;7.70;99.90
66271;DHT22;53063;39.614;8.814;2023-02-28T01:33:51;7.60;99.90
66271;DHT22;53063;39.614;8.814;2023-02-28T01:36:20;7.60;99.90
66271;DHT22;53063;39.614;8.814;2023-02-28T01:38:47;7.60;99.90
66271;DHT22;53063;39.614;8.814;2023-02-28T01:41:24;7.60;99.90
66271;DHT22;53063;39.614;8.814;2023-02-28T01:43:55;7.60;99.90
66271;DHT22;53063;39.614;8.814;2023-02-28T01:46:21;7.50;99.90
66271;DHT22;53063;39.614;8.814;2023-02-28T01:51:31;7.50;99.90
66271;DHT22;53063;39.614;8.814;2023-02-28T01:54:03;7.60;99.90
66271;DHT22;53063;39.614;8.814;2023-02-28T01:56:33;7.50;99.90
66271;DHT22;53063;39.614;8.814;2023-02-28T01:59:00;7.50;99.90
66271;DHT22;53063;39.614;8.814;2023-02-28T02:01:27;7.50;99.90
66271;DHT22;53063;39.614;8.814;2023-02-28T02:03:55;7.50;99.90
66271;DHT22;53063;39.614;8.814;2023-02-28T02:06:27;7.50;99.90
66271;DHT22;53063;39.614;8.814;2023-02-28T02:08:54;7.40;99.90
66271;DHT22;53063;39.614;8.814;2023-02-28T02:11:23;7.50;99.90
66271;DHT22;53063;39.614;8.814;2023-02-28T02:33:15;7.60;99.90
66271;DHT22;53063;39.614;8.814;2023-02-28T02:41:43;7.50;99.90
66271;DHT22;53063;39.614;8.814;2023-02-28T02:44:19;7.40;99.90
66271;DHT22;53063;39.614;8.814;2023-02-28T02:46:49;7.40;99.90
66271;DHT22;53063;39.614;8.814;2023-02-28T02:49:24;7.40;99.90
66271;DHT22;53063;39.614;8.814;2023-02-28T02:51:52;7.40;99.90
66271;DHT22;53063;39.614;8.814;2023-02-28T02:54:35;7.40;99.90
66271;DHT22;53063;39.614;8.814;2023-02-28T02:57:06;7.40;99.90
66271;DHT22;53063;39.614;8.814;2023-02-28T02:59:36;7.30;99.90
66271;DHT22;53063;39.614;8.814;2023-02-28T03:02:06;7.20;99.90
66271;DHT22;53063;39.614;8.814;2023-02-28T03:04:45;7.20;99.90
66271;DHT22;53063;39.614;8.814;2023-02-28T03:07:13;7.20;99.90
66271;DHT22;53063;39.614;8.814;2023-02-28T03:09:39;7.30;99.90
66271;DHT22;53063;39.614;8.814;2023-02-28T03:12:11;7.30;99.90
66271;DHT22;53063;39.614;8.814;2023-02-28T03:18:06;7.30;99.90
66271;DHT22;53063;39.614;8.814;2023-02-28T03:20:46;7.30;99.90
66271;DHT22;53063;39.614;8.814;2023-02-28T03:23:20;7.30;99.90
66271;DHT22;53063;39.614;8.814;2023-02-28T03:31:10;7.20;99.90
66271;DHT22;53063;39.614;8.814;2023-02-28T03:33:39;7.00;99.90
66271;DHT22;53063;39.614;8.814;2023-02-28T03:36:10;7.00;99.90
66271;DHT22;53063;39.614;8.814;2023-02-28T03:38:43;7.10;99.90
66271;DHT22;53063;39.614;8.814;2023-02-28T03:41:23;7.00;99.90
66271;DHT22;53063;39.614;8.814;2023-02-28T03:44:13;7.10;99.90
66271;DHT22;53063;39.614;8.814;2023-02-28T03:46:58;7.10;99.90
66271;DHT22;53063;39.614;8.814;2023-02-28T03:49:47;7.00;99.90
66271;DHT22;53063;39.614;8.814;2023-02-28T03:52:18;7.00;99.90
66271;DHT22;53063;39.614;8.814;2023-02-28T03:54:48;7.10;99.90
66271;DHT22;53063;39.614;8.814;2023-02-28T03:57:28;7.10;99.90
66271;DHT22;53063;39.614;8.814;2023-02-28T04:00:04;7.10;99.90
66271;DHT22;53063;39.614;8.814;2023-02-28T04:02:38;7.10;99.90
66271;DHT22;53063;39.614;8.814;2023-02-28T04:05:06;7.10;99.90
66271;DHT22;53063;39.614;8.814;2023-02-28T04:07:32;7.10;99.90
66271;DHT22;53063;39.614;8.814;2023-02-28T04:09:58;7.20;99.90
66271;DHT22;53063;39.614;8.814;2023-02-28T04:12:25;7.20;99.90
66271;DHT22;53063;39.614;8.814;2023-02-28T04:14:51;7.00;99.90
66271;DHT22;53063;39.614;8.814;2023-02-28T04:17:17;7.00;99.90
66271;DHT22;53063;39.614;8.814;2023-02-28T04:19:44;7.10;99.90
66271;DHT22;53063;39.614;8.814;2023-02-28T04:22:10;7.10;99.90
66271;DHT22;53063;39.614;8.814;2023-02-28T04:24:36;7.00;99.90
66271;DHT22;53063;39.614;8.814;2023-02-28T04:27:08;7.00;99.90
66271;DHT22;53063;39.614;8.814;2023-02-28T04:29:34;7.10;99.90
66271;DHT22;53063;39.614;8.814;2023-02-28T04:32:01;7.20;99.90
66271;DHT22;53063;39.614;8.814;2023-02-28T04:34:28;7.20;99.90
66271;DHT22;53063;39.614;8.814;2023-02-28T04:36:57;7.10;99.90
66271;DHT22;53063;39.614;8.814;2023-02-28T04:39:24;7.00;99.90
66271;DHT22;53063;39.614;8.814;2023-02-28T04:41:50;6.80;99.90
66271;DHT22;53063;39.614;8.814;2023-02-28T04:44:16;6.80;99.90
66271;DHT22;53063;39.614;8.814;2023-02-28T04:46:43;6.80;99.90
66271;DHT22;53063;39.614;8.814;2023-02-28T04:49:12;6.80;99.90
66271;DHT22;53063;39.614;8.814;2023-02-28T04:51:38;6.70;99.90
66271;DHT22;53063;39.614;8.814;2023-02-28T04:54:05;6.70;99.90
66271;DHT22;53063;39.614;8.814;2023-02-28T04:56:31;6.70;99.90
66271;DHT22;53063;39.614;8.814;2023-02-28T04:58:56;6.80;99.90
66271;DHT22;53063;39.614;8.814;2023-02-28T05:01:26;6.70;99.90
66271;DHT22;53063;39.614;8.814;2023-02-28T05:03:54;6.70;99.90
66271;DHT22;53063;39.614;8.814;2023-02-28T05:06:21;6.70;99.90
66271;DHT22;53063;39.614;8.814;2023-02-28T05:08:49;6.70;99.90
66271;DHT22;53063;39.614;8.814;2023-02-28T05:11:19;6.70;99.90
66271;DHT22;53063;39.614;8.814;2023-02-28T05:13:45;6.60;99.90
66271;DHT22;53063;39.614;8.814;2023-02-28T05:16:11;6.60;99.90
66271;DHT22;53063;39.614;8.814;2023-02-28T05:18:37;6.60;99.90
66271;DHT22;53063;39.614;8.814;2023-02-28T05:21:04;6.70;99.90
66271;DHT22;53063;39.614;8.814;2023-02-28T05:23:30;6.70;99.90
66271;DHT22;53063;39.614;8.814;2023-02-28T05:25:56;6.70;99.90
66271;DHT22;53063;39.614;8.814;2023-02-28T05:28:22;6.60;99.90
66271;DHT22;53063;39.614;8.814;2023-02-28T05:30:48;6.60;99.90
66271;DHT22;53063;39.614;8.814;2023-02-28T05:33:14;6.60;99.90
66271;DHT22;53063;39.614;8.814;2023-02-28T05:35:41;6.50;99.90
66271;DHT22;53063;39.614;8.814;2023-02-28T05:38:08;6.60;99.90
66271;DHT22;53063;39.614;8.814;2023-02-28T05:40:35;6.50;99.90
66271;DHT22;53063;39.614;8.814;2023-02-28T05:43:01;6.60;99.90
66271;DHT22;53063;39.614;8.814;2023-02-28T05:45:27;6.50;99.90
66271;DHT22;53063;39.614;8.814;2023-02-28T05:47:56;6.50;99.90
66271;DHT22;53063;39.614;8.814;2023-02-28T05:50:22;6.50;99.90
66271;DHT22;53063;39.614;8.814;2023-02-28T05:52:51;6.50;99.90
66271;DHT22;53063;39.614;8.814;2023-02-28T05:55:17;6.50;99.90
66271;DHT22;53063;39.614;8.814;2023-02-28T05:57:42;6.50;99.90
66271;DHT22;53063;39.614;8.814;2023-02-28T06:00:09;6.50;99.90
66271;DHT22;53063;39.614;8.814;2023-02-28T06:02:39;6.50;99.90
66271;DHT22;53063;39.614;8.814;2023-02-28T06:05:15;6.50;99.90
66271;DHT22;53063;39.614;8.814;2023-02-28T06:07:41;6.40;99.90
66271;DHT22;53063;39.614;8.814;2023-02-28T06:10:08;6.50;99.90
66271;DHT22;53063;39.614;8.814;2023-02-28T06:12:34;6.40;99.90
66271;DHT22;53063;39.614;8.814;2023-02-28T06:15:00;6.50;99.90
66271;DHT22;53063;39.614;8.814;2023-02-28T06:17:26;6.50;99.90
66271;DHT22;53063;39.614;8.814;2023-02-28T06:19:52;6.40;99.90
66271;DHT22;53063;39.614;8.814;2023-02-28T06:22:18;6.40;99.90
66271;DHT22;53063;39.614;8.814;2023-02-28T06:24:44;6.40;99.90
66271;DHT22;53063;39.614;8.814;2023-02-28T06:27:10;6.30;99.90
66271;DHT22;53063;39.614;8.814;2023-02-28T06:29:36;6.30;99.90
66271;DHT22;53063;39.614;8.814;2023-02-28T06:32:05;6.30;99.90
66271;DHT22;53063;39.614;8.814;2023-02-28T06:34:32;6.30;99.90
66271;DHT22;53063;39.614;8.814;2023-02-28T06:37:00;6.30;99.90
66271;DHT22;53063;39.614;8.814;2023-02-28T06:39:29;6.30;99.90
66271;DHT22;53063;39.614;8.814;2023-02-28T06:41:55;6.30;99.90
66271;DHT22;53063;39.614;8.814;2023-02-28T06:44:21;6.30;99.90
66271;DHT22;53063;39.614;8.814;2023-02-28T06:46:47;6.30;99.90
66271;DHT22;53063;39.614;8.814;2023-02-28T06:49:13;6.40;99.90
66271;DHT22;53063;39.614;8.814;2023-02-28T06:51:41;6.50;99.90
66271;DHT22;53063;39.614;8.814;2023-02-28T06:54:07;6.50;99.90
66271;DHT22;53063;39.614;8.814;2023-02-28T06:56:36;6.50;99.90
66271;DHT22;53063;39.614;8.814;2023-02-28T06:59:03;6.50;99.90
66271;DHT22;53063;39.614;8.814;2023-02-28T07:01:30;6.50;99.90
66271;DHT22;53063;39.614;8.814;2023-02-28T07:03:57;6.60;99.90
66271;DHT22;53063;39.614;8.814;2023-02-28T07:06:23;6.60;99.90
66271;DHT22;53063;39.614;8.814;2023-02-28T07:08:51;6.70;99.90
66271;DHT22;53063;39.614;8.814;2023-02-28T07:11:19;6.70;99.90
66271;DHT22;53063;39.614;8.814;2023-02-28T07:13:45;6.60;99.90
66271;DHT22;53063;39.614;8.814;2023-02-28T07:16:13;6.60;99.90
66271;DHT22;53063;39.614;8.814;2023-02-28T07:18:39;6.60;99.90
66271;DHT22;53063;39.614;8.814;2023-02-28T07:21:07;6.50;99.90
66271;DHT22;53063;39.614;8.814;2023-02-28T07:23:34;6.50;99.90
66271;DHT22;53063;39.614;8.814;2023-02-28T07:26:01;6.60;99.90
66271;DHT22;53063;39.614;8.814;2023-02-28T07:28:27;6.60;99.90
66271;DHT22;53063;39.614;8.814;2023-02-28T07:30:53;6.70;99.90
66271;DHT22;53063;39.614;8.814;2023-02-28T07:33:19;6.70;99.90
66271;DHT22;53063;39.614;8.814;2023-02-28T07:35:45;6.80;99.90
66271;DHT22;53063;39.614;8.814;2023-02-28T07:38:11;6.90;99.90
66271;DHT22;53063;39.614;8.814;2023-02-28T07:40:39;6.80;99.90
66271;DHT22;53063;39.614;8.814;2023-02-28T07:43:05;6.80;99.90
66271;DHT22;53063;39.614;8.814;2023-02-28T07:45:31;6.60;99.90
66271;DHT22;53063;39.614;8.814;2023-02-28T07:48:00;6.70;99.90
66271;DHT22;53063;39.614;8.814;2023-02-28T07:50:26;6.80;99.90
66271;DHT22;53063;39.614;8.814;2023-02-28T07:52:57;6.90;99.90
66271;DHT22;53063;39.614;8.814;2023-02-28T07:55:23;6.90;99.90
66271;DHT22;53063;39.614;8.814;2023-02-28T07:57:49;7.00;99.90
66271;DHT22;53063;39.614;8.814;2023-02-28T08:00:15;7.00;99.90
66271;DHT22;53063;39.614;8.814;2023-02-28T08:02:41;7.00;99.90
66271;DHT22;53063;39.614;8.814;2023-02-28T08:05:07;7.00;99.90
66271;DHT22;53063;39.614;8.814;2023-02-28T08:07:33;6.90;99.90
66271;DHT22;53063;39.614;8.814;2023-02-28T08:10:00;6.90;99.90
66271;DHT22;53063;39.614;8.814;2023-02-28T08:12:26;7.00;99.90
66271;DHT22;53063;39.614;8.814;2023-02-28T08:14:52;7.10;99.90
66271;DHT22;53063;39.614;8.814;2023-02-28T08:17:18;7.10;99.90
66271;DHT22;53063;39.614;8.814;2023-02-28T08:19:47;7.10;99.90
66271;DHT22;53063;39.614;8.814;2023-02-28T08:22:13;7.10;99.90
66271;DHT22;53063;39.614;8.814;2023-02-28T08:24:41;7.20;99.90
66271;DHT22;53063;39.614;8.814;2023-02-28T08:27:08;7.30;99.90
66271;DHT22;53063;39.614;8.814;2023-02-28T08:29:36;7.20;99.90
66271;DHT22;53063;39.614;8.814;2023-02-28T08:32:02;7.20;99.90
66271;DHT22;53063;39.614;8.814;2023-02-28T08:34:28;7.10;99.90
66271;DHT22;53063;39.614;8.814;2023-02-28T08:36:54;7.10;99.90
66271;DHT22;53063;39.614;8.814;2023-02-28T08:39:20;7.10;99.90
66271;DHT22;53063;39.614;8.814;2023-02-28T08:41:45;7.00;99.90
66271;DHT22;53063;39.614;8.814;2023-02-28T08:44:11;7.00;99.90
66271;DHT22;53063;39.614;8.814;2023-02-28T08:46:38;6.90;99.90
66271;DHT22;53063;39.614;8.814;2023-02-28T08:49:04;6.90;99.90
66271;DHT22;53063;39.614;8.814;2023-02-28T08:51:30;7.00;99.90
66271;DHT22;53063;39.614;8.814;2023-02-28T08:53:59;7.00;99.90
66271;DHT22;53063;39.614;8.814;2023-02-28T08:56:27;7.10;99.90
66271;DHT22;53063;39.614;8.814;2023-02-28T08:58:55;7.10;99.90
66271;DHT22;53063;39.614;8.814;2023-02-28T09:01:25;7.30;99.90
66271;DHT22;53063;39.614;8.814;2023-02-28T09:03:52;7.30;99.90
66271;DHT22;53063;39.614;8.814;2023-02-28T09:06:21;7.30;99.90
66271;DHT22;53063;39.614;8.814;2023-02-28T09:08:47;7.30;99.90
66271;DHT22;53063;39.614;8.814;2023-02-28T09:11:13;7.40;99.90
66271;DHT22;53063;39.614;8.814;2023-02-28T09:13:40;7.20;99.90
66271;DHT22;53063;39.614;8.814;2023-02-28T09:16:09;7.20;99.90
66271;DHT22;53063;39.614;8.814;2023-02-28T09:18:36;7.30;99.90
66271;DHT22;53063;39.614;8.814;2023-02-28T09:21:05;7.40;99.90
66271;DHT22;53063;39.614;8.814;2023-02-28T09:23:31;7.20;99.90
66271;DHT22;53063;39.614;8.814;2023-02-28T09:25:57;7.40;99.90
66271;DHT22;53063;39.614;8.814;2023-02-28T09:28:23;7.50;99.90
66271;DHT22;53063;39.614;8.814;2023-02-28T09:30:51;7.60;99.90
66271;DHT22;53063;39.614;8.814;2023-02-28T09:33:18;7.80;99.90
66271;DHT22;53063;39.614;8.814;2023-02-28T09:35:46;7.90;99.90
66271;DHT22;53063;39.614;8.814;2023-02-28T09:38:12;7.90;99.90
66271;DHT22;53063;39.614;8.814;2023-02-28T09:40:51;7.70;99.90
66271;DHT22;53063;39.614;8.814;2023-02-28T09:43:23;7.60;99.90
66271;DHT22;53063;39.614;8.814;2023-02-28T09:48:29;7.70;99.90
66271;DHT22;53063;39.614;8.814;2023-02-28T09:51:12;7.80;99.90
66271;DHT22;53063;39.614;8.814;2023-02-28T09:53:39;7.80;99.90
66271;DHT22;53063;39.614;8.814;2023-02-28T09:56:39;7.80;99.90
66271;DHT22;53063;39.614;8.814;2023-02-28T10:04:50;8.10;99.90
66271;DHT22;53063;39.614;8.814;2023-02-28T10:09:58;8.30;99.90
66271;DHT22;53063;39.614;8.814;2023-02-28T10:12:28;8.30;99.90
66271;DHT22;53063;39.614;8.814;2023-02-28T10:14:56;8.40;99.90
66271;DHT22;53063;39.614;8.814;2023-02-28T10:17:26;8.70;99.90
66271;DHT22;53063;39.614;8.814;2023-02-28T10:22:38;8.80;99.90
66271;DHT22;53063;39.614;8.814;2023-02-28T10:25:20;8.80;99.90
66271;DHT22;53063;39.614;8.814;2023-02-28T10:27:47;8.90;99.90
66271;DHT22;53063;39.614;8.814;2023-02-28T10:30:13;8.80;99.90
66271;DHT22;53063;39.614;8.814;2023-02-28T10:32:50;8.80;99.90
66271;DHT22;53063;39.614;8.814;2023-02-28T10:35:22;9.10;99.90
66271;DHT22;53063;39.614;8.814;2023-02-28T10:37:57;9.20;99.90
66271;DHT22;53063;39.614;8.814;2023-02-28T10:43:02;9.10;99.90
66271;DHT22;53063;39.614;8.814;2023-02-28T10:45:30;9.10;99.90
66271;DHT22;53063;39.614;8.814;2023-02-28T10:47:58;9.10;99.90
66271;DHT22;53063;39.614;8.814;2023-02-28T10:51:10;8.90;99.90
66271;DHT22;53063;39.614;8.814;2023-02-28T10:53:28;9.00;99.90
66271;DHT22;53063;39.614;8.814;2023-02-28T10:56:06;8.80;99.90
66271;DHT22;53063;39.614;8.814;2023-02-28T11:01:35;8.90;99.90
66271;DHT22;53063;39.614;8.814;2023-02-28T11:04:01;8.80;99.90
66271;DHT22;53063;39.614;8.814;2023-02-28T11:06:33;8.80;99.90
66271;DHT22;53063;39.614;8.814;2023-02-28T11:09:02;8.50;99.90
66271;DHT22;53063;39.614;8.814;2023-02-28T11:11:31;8.60;99.90
66271;DHT22;53063;39.614;8.814;2023-02-28T11:14:21;8.80;99.90
66271;DHT22;53063;39.614;8.814;2023-02-28T11:16:48;8.80;99.90
66271;DHT22;53063;39.614;8.814;2023-02-28T11:19:25;8.70;99.90
66271;DHT22;53063;39.614;8.814;2023-02-28T11:21:58;8.80;99.90
66271;DHT22;53063;39.614;8.814;2023-02-28T11:24:34;9.00;99.90
66271;DHT22;53063;39.614;8.814;2023-02-28T11:27:01;9.10;99.90
66271;DHT22;53063;39.614;8.814;2023-02-28T11:29:30;8.90;99.90
66271;DHT22;53063;39.614;8.814;2023-02-28T11:34:31;9.50;99.90
66271;DHT22;53063;39.614;8.814;2023-02-28T11:36:59;9.60;99.90
66271;DHT22;53063;39.614;8.814;2023-02-28T11:39:27;9.60;99.90
66271;DHT22;53063;39.614;8.814;2023-02-28T11:47:20;10.50;96.70
66271;DHT22;53063;39.614;8.814;2023-02-28T11:55:53;10.70;93.80
66271;DHT22;53063;39.614;8.814;2023-02-28T12:01:03;11.30;90.60
66271;DHT22;53063;39.614;8.814;2023-02-28T12:03:49;11.70;91.50
66271;DHT22;53063;39.614;8.814;2023-02-28T12:06:51;10.90;90.60
66271;DHT22;53063;39.614;8.814;2023-02-28T12:12:22;10.90;91.30
66271;DHT22;53063;39.614;8.814;2023-02-28T12:26:30;10.60;88.60
66271;DHT22;53063;39.614;8.814;2023-02-28T12:32:09;10.80;87.00
66271;DHT22;53063;39.614;8.814;2023-02-28T12:34:46;11.00;86.10
66271;DHT22;53063;39.614;8.814;2023-02-28T12:37:34;10.70;90.30
66271;DHT22;53063;39.614;8.814;2023-02-28T12:40:11;11.00;88.70
66271;DHT22;53063;39.614;8.814;2023-02-28T12:43:04;11.10;88.10
66271;DHT22;53063;39.614;8.814;2023-02-28T12:48:31;10.90;87.60
66271;DHT22;53063;39.614;8.814;2023-02-28T12:51:00;11.20;85.90
66271;DHT22;53063;39.614;8.814;2023-02-28T12:58:51;11.00;85.80
66271;DHT22;53063;39.614;8.814;2023-02-28T13:01:42;10.90;87.20
66271;DHT22;53063;39.614;8.814;2023-02-28T13:04:22;10.90;87.20
66271;DHT22;53063;39.614;8.814;2023-02-28T13:09:34;10.50;89.00
66271;DHT22;53063;39.614;8.814;2023-02-28T13:12:00;10.60;89.80
66271;DHT22;53063;39.614;8.814;2023-02-28T13:16:59;10.80;89.30
66271;DHT22;53063;39.614;8.814;2023-02-28T13:19:30;10.90;89.30
66271;DHT22;53063;39.614;8.814;2023-02-28T13:21:57;10.70;88.50
66271;DHT22;53063;39.614;8.814;2023-02-28T13:27:33;10.30;88.60
66271;DHT22;53063;39.614;8.814;2023-02-28T13:29:58;10.30;90.70
66271;DHT22;53063;39.614;8.814;2023-02-28T13:32:32;10.20;91.80
66271;DHT22;53063;39.614;8.814;2023-02-28T13:40:26;9.80;99.10
66271;DHT22;53063;39.614;8.814;2023-02-28T13:42:52;9.00;99.90
66271;DHT22;53063;39.614;8.814;2023-02-28T13:46:17;9.00;99.90
66271;DHT22;53063;39.614;8.814;2023-02-28T13:48:37;9.00;99.90
66271;DHT22;53063;39.614;8.814;2023-02-28T13:51:37;9.20;99.90
66271;DHT22;53063;39.614;8.814;2023-02-28T14:05:01;9.40;99.90
66271;DHT22;53063;39.614;8.814;2023-02-28T14:07:32;9.20;99.90
66271;DHT22;53063;39.614;8.814;2023-02-28T14:10:02;9.20;99.90
66271;DHT22;53063;39.614;8.814;2023-02-28T14:20:51;9.40;99.90
66271;DHT22;53063;39.614;8.814;2023-02-28T14:28:47;9.40;99.90
66271;DHT22;53063;39.614;8.814;2023-02-28T14:31:34;9.30;99.90
66271;DHT22;53063;39.614;8.814;2023-02-28T14:36:45;9.30;99.90
66271;DHT22;53063;39.614;8.814;2023-02-28T14:39:17;9.60;99.90
66271;DHT22;53063;39.614;8.814;2023-02-28T14:41:45;9.40;99.90
66271;DHT22;53063;39.614;8.814;2023-02-28T14:44:26;8.90;99.90
66271;DHT22;53063;39.614;8.814;2023-02-28T14:47:00;9.00;99.90
66271;DHT22;53063;39.614;8.814;2023-02-28T14:49:52;9.50;99.90
66271;DHT22;53063;39.614;8.814;2023-02-28T14:52:29;9.70;99.90
66271;DHT22;53063;39.614;8.814;2023-02-28T14:55:14;9.70;99.90
66271;DHT22;53063;39.614;8.814;2023-02-28T14:58:02;9.10;99.90
66271;DHT22;53063;39.614;8.814;2023-02-28T15:00:34;9.30;99.90
66271;DHT22;53063;39.614;8.814;2023-02-28T15:06:04;9.00;99.90
66271;DHT22;53063;39.614;8.814;2023-02-28T15:08:30;9.30;99.90
66271;DHT22;53063;39.614;8.814;2023-02-28T15:11:26;9.00;99.90
66271;DHT22;53063;39.614;8.814;2023-02-28T15:13:54;9.30;99.90
66271;DHT22;53063;39.614;8.814;2023-02-28T15:16:31;9.30;99.90
66271;DHT22;53063;39.614;8.814;2023-02-28T15:19:01;9.60;99.90
66271;DHT22;53063;39.614;8.814;2023-02-28T15:21:38;9.40;99.90
66271;DHT22;53063;39.614;8.814;2023-02-28T15:24:18;8.90;99.90
66271;DHT22;53063;39.614;8.814;2023-02-28T15:26:58;8.80;99.90
66271;DHT22;53063;39.614;8.814;2023-02-28T15:29:27;8.80;99.90
66271;DHT22;53063;39.614;8.814;2023-02-28T15:32:02;8.50;99.90
66271;DHT22;53063;39.614;8.814;2023-02-28T15:34:40;8.20;99.90
66271;DHT22;53063;39.614;8.814;2023-02-28T15:37:26;8.30;99.90
66271;DHT22;53063;39.614;8.814;2023-02-28T15:40:13;8.20;99.90
66271;DHT22;53063;39.614;8.814;2023-02-28T15:42:40;8.30;99.90
66271;DHT22;53063;39.614;8.814;2023-02-28T15:45:34;8.30;99.90
66271;DHT22;53063;39.614;8.814;2023-02-28T15:48:05;8.20;99.90
66271;DHT22;53063;39.614;8.814;2023-02-28T15:50:31;8.20;99.90
66271;DHT22;53063;39.614;8.814;2023-02-28T15:52:57;8.20;99.90
66271;DHT22;53063;39.614;8.814;2023-02-28T15:55:28;8.10;99.90
66271;DHT22;53063;39.614;8.814;2023-02-28T15:57:56;8.20;99.90
66271;DHT22;53063;39.614;8.814;2023-02-28T16:00:27;8.10;99.90
66271;DHT22;53063;39.614;8.814;2023-02-28T16:02:53;8.20;99.90
66271;DHT22;53063;39.614;8.814;2023-02-28T16:05:29;8.20;99.90
66271;DHT22;53063;39.614;8.814;2023-02-28T16:08:00;8.10;99.90
66271;DHT22;53063;39.614;8.814;2023-02-28T16:10:27;7.90;99.90
66271;DHT22;53063;39.614;8.814;2023-02-28T16:12:57;7.90;99.90
66271;DHT22;53063;39.614;8.814;2023-02-28T16:15:28;7.90;99.90
66271;DHT22;53063;39.614;8.814;2023-02-28T16:17:57;8.00;99.90
66271;DHT22;53063;39.614;8.814;2023-02-28T16:20:26;8.00;99.90
66271;DHT22;53063;39.614;8.814;2023-02-28T16:22:53;8.00;99.90
66271;DHT22;53063;39.614;8.814;2023-02-28T16:25:23;7.90;99.90
66271;DHT22;53063;39.614;8.814;2023-02-28T16:27:52;7.80;99.90
66271;DHT22;53063;39.614;8.814;2023-02-28T16:30:27;7.80;99.90
66271;DHT22;53063;39.614;8.814;2023-02-28T16:32:57;7.90;99.90
66271;DHT22;53063;39.614;8.814;2023-02-28T16:35:23;7.90;99.90
66271;DHT22;53063;39.614;8.814;2023-02-28T16:37:53;7.90;99.90
66271;DHT22;53063;39.614;8.814;2023-02-28T16:40:23;7.70;99.90
66271;DHT22;53063;39.614;8.814;2023-02-28T16:42:52;7.80;99.90
66271;DHT22;53063;39.614;8.814;2023-02-28T16:45:27;7.80;99.90
66271;DHT22;53063;39.614;8.814;2023-02-28T16:47:55;7.80;99.90
66271;DHT22;53063;39.614;8.814;2023-02-28T16:50:26;7.80;99.90
66271;DHT22;53063;39.614;8.814;2023-02-28T16:52:53;7.80;99.90
66271;DHT22;53063;39.614;8.814;2023-02-28T16:55:21;7.90;99.90
66271;DHT22;53063;39.614;8.814;2023-02-28T16:57:58;7.90;99.90
66271;DHT22;53063;39.614;8.814;2023-02-28T17:00:26;7.70;99.90
66271;DHT22;53063;39.614;8.814;2023-02-28T17:02:53;7.70;99.90
66271;DHT22;53063;39.614;8.814;2023-02-28T17:05:20;7.70;99.90
66271;DHT22;53063;39.614;8.814;2023-02-28T17:07:46;7.60;99.90
66271;DHT22;53063;39.614;8.814;2023-02-28T17:10:18;7.50;99.90
66271;DHT22;53063;39.614;8.814;2023-02-28T17:12:47;7.50;99.90
66271;DHT22;53063;39.614;8.814;2023-02-28T17:15:15;7.60;99.90
66271;DHT22;53063;39.614;8.814;2023-02-28T17:17:43;7.50;99.90
66271;DHT22;53063;39.614;8.814;2023-02-28T17:20:25;7.50;99.90
66271;DHT22;53063;39.614;8.814;2023-02-28T17:22:55;7.50;99.90
66271;DHT22;53063;39.614;8.814;2023-02-28T17:25:26;7.40;99.90
66271;DHT22;53063;39.614;8.814;2023-02-28T17:27:55;7.30;99.90
66271;DHT22;53063;39.614;8.814;2023-02-28T17:30:26;7.20;99.90
66271;DHT22;53063;39.614;8.814;2023-02-28T17:32:57;7.00;99.90
66271;DHT22;53063;39.614;8.814;2023-02-28T17:35:25;7.00;99.90
66271;DHT22;53063;39.614;8.814;2023-02-28T17:37:54;7.10;99.90
66271;DHT22;53063;39.614;8.814;2023-02-28T17:40:22;7.10;99.90
66271;DHT22;53063;39.614;8.814;2023-02-28T17:42:49;7.10;99.90
66271;DHT22;53063;39.614;8.814;2023-02-28T17:45:18;7.10;99.90
66271;DHT22;53063;39.614;8.814;2023-02-28T17:47:48;7.00;99.90
66271;DHT22;53063;39.614;8.814;2023-02-28T17:50:18;7.10;99.90
66271;DHT22;53063;39.614;8.814;2023-02-28T17:52:48;7.10;99.90
66271;DHT22;53063;39.614;8.814;2023-02-28T17:55:15;7.10;99.90
66271;DHT22;53063;39.614;8.814;2023-02-28T17:57:41;7.20;99.90
66271;DHT22;53063;39.614;8.814;2023-02-28T18:00:10;7.10;99.90
66271;DHT22;53063;39.614;8.814;2023-02-28T18:02:38;7.00;99.90
66271;DHT22;53063;39.614;8.814;2023-02-28T18:05:05;6.90;99.90
66271;DHT22;53063;39.614;8.814;2023-02-28T18:07:31;6.90;99.90
66271;DHT22;53063;39.614;8.814;2023-02-28T18:09:57;6.80;99.90
66271;DHT22;53063;39.614;8.814;2023-02-28T18:12:23;6.80;99.90
66271;DHT22;53063;39.614;8.814;2023-02-28T18:14:49;6.80;99.90
66271;DHT22;53063;39.614;8.814;2023-02-28T18:17:15;6.80;99.90
66271;DHT22;53063;39.614;8.814;2023-02-28T18:19:41;6.80;99.90
66271;DHT22;53063;39.614;8.814;2023-02-28T18:22:07;6.80;99.90
66271;DHT22;53063;39.614;8.814;2023-02-28T18:24:34;6.70;99.90